sensor_id;sensor_type;location;lat;lon;timestamp;pressure;altitude;pressure_sealevel;temperature;humidity
58658;BME280;44428;45.630;13.786;2022-08-11T00:01:48;101702.88;;;23.47;38.59
58658;BME280;44428;45.630;13.786;2022-08-11T00:04:15;101695.81;;;23.46;37.76
58658;BME280;44428;45.630;13.786;2022-08-11T00:06:42;101700.53;;;23.52;37.77
58658;BME280;44428;45.630;13.786;2022-08-11T00:09:18;101694.13;;;23.45;37.96
58658;BME280;44428;45.630;13.786;2022-08-11T00:11:50;101698.50;;;23.54;38.02
58658;BME280;44428;45.630;13.786;2022-08-11T00:14:19;101699.19;;;23.56;38.20
58658;BME280;44428;45.630;13.786;2022-08-11T00:17:21;101689.56;;;23.53;37.80
58658;BME280;44428;45.630;13.786;2022-08-11T00:19:51;101690.75;;;23.43;38.07
58658;BME280;44428;45.630;13.786;2022-08-11T00:22:21;101692.78;;;23.41;38.10
58658;BME280;44428;45.630;13.786;2022-08-11T00:24:48;101690.06;;;23.41;38.18
58658;BME280;44428;45.630;13.786;2022-08-11T00:27:14;101691.41;;;23.45;37.58
58658;BME280;44428;45.630;13.786;2022-08-11T00:29:40;101688.72;;;23.45;37.69
58658;BME280;44428;45.630;13.786;2022-08-11T00:32:16;101685.38;;;23.43;38.07
58658;BME280;44428;45.630;13.786;2022-08-11T00:34:43;101684.19;;;23.45;37.64
58658;BME280;44428;45.630;13.786;2022-08-11T00:37:19;101684.69;;;23.49;37.65
58658;BME280;44428;45.630;13.786;2022-08-11T00:39:49;101690.56;;;23.44;37.89
58658;BME280;44428;45.630;13.786;2022-08-11T00:45:09;101684.00;;;23.47;37.87
58658;BME280;44428;45.630;13.786;2022-08-11T00:48:03;101688.72;;;23.45;37.44
58658;BME280;44428;45.630;13.786;2022-08-11T00:52:06;101679.63;;;23.46;37.79
58658;BME280;44428;45.630;13.786;2022-08-11T01:02:45;101676.59;;;23.41;37.20
58658;BME280;44428;45.630;13.786;2022-08-11T01:56:00;101660.75;;;23.29;35.68
58658;BME280;44428;45.630;13.786;2022-08-11T02:02:12;101654.19;;;23.24;36.22
58658;BME280;44428;45.630;13.786;2022-08-11T02:06:57;101652.66;;;23.13;36.45
58658;BME280;44428;45.630;13.786;2022-08-11T02:13:00;101656.38;;;23.12;36.68
58658;BME280;44428;45.630;13.786;2022-08-11T02:15:45;101642.53;;;23.07;36.84
58658;BME280;44428;45.630;13.786;2022-08-11T02:18:32;101651.66;;;23.06;36.86
58658;BME280;44428;45.630;13.786;2022-08-11T02:21:26;101639.50;;;23.02;37.06
58658;BME280;44428;45.630;13.786;2022-08-11T02:24:33;101629.69;;;22.93;37.25
58658;BME280;44428;45.630;13.786;2022-08-11T02:27:05;101640.28;;;22.86;37.13
58658;BME280;44428;45.630;13.786;2022-08-11T02:30:02;101629.00;;;22.82;37.65
58658;BME280;44428;45.630;13.786;2022-08-11T02:41:27;101620.53;;;22.61;37.92
58658;BME280;44428;45.630;13.786;2022-08-11T02:44:31;101629.63;;;22.68;37.17
58658;BME280;44428;45.630;13.786;2022-08-11T02:57:39;101611.44;;;22.62;36.90
58658;BME280;44428;45.630;13.786;2022-08-11T03:00:10;101605.03;;;22.63;37.19
58658;BME280;44428;45.630;13.786;2022-08-11T03:05:20;101614.16;;;22.70;36.89
58658;BME280;44428;45.630;13.786;2022-08-11T03:10:50;101605.38;;;22.68;36.85
58658;BME280;44428;45.630;13.786;2022-08-11T03:16:52;101610.78;;;22.68;36.62
58658;BME280;44428;45.630;13.786;2022-08-11T03:19:34;101615.84;;;22.71;36.57
58658;BME280;44428;45.630;13.786;2022-08-11T03:27:20;101613.66;;;22.67;36.40
58658;BME280;44428;45.630;13.786;2022-08-11T03:32:31;101603.72;;;22.67;36.24
58658;BME280;44428;45.630;13.786;2022-08-11T03:35:02;101610.44;;;22.71;36.10
58658;BME280;44428;45.630;13.786;2022-08-11T03:37:42;101601.00;;;22.75;36.58
58658;BME280;44428;45.630;13.786;2022-08-11T03:44:06;101605.38;;;22.68;36.18
58658;BME280;44428;45.630;13.786;2022-08-11T03:49:38;101609.09;;;22.67;36.50
58658;BME280;44428;45.630;13.786;2022-08-11T03:52:22;101598.31;;;22.67;36.21
58658;BME280;44428;45.630;13.786;2022-08-11T04:03:51;101603.06;;;22.73;36.28
58658;BME280;44428;45.630;13.786;2022-08-11T04:09:23;101597.28;;;22.60;36.66
58658;BME280;44428;45.630;13.786;2022-08-11T04:12:21;101597.81;;;22.63;36.51
58658;BME280;44428;45.630;13.786;2022-08-11T04:15:13;101596.63;;;22.66;36.82
58658;BME280;44428;45.630;13.786;2022-08-11T04:23:54;101595.97;;;22.72;36.68
58658;BME280;44428;45.630;13.786;2022-08-11T05:01:26;101596.78;;;27.39;29.10
58658;BME280;44428;45.630;13.786;2022-08-11T05:13:08;101589.75;;;28.21;27.72
58658;BME280;44428;45.630;13.786;2022-08-11T05:15:56;101595.22;;;28.35;27.53
58658;BME280;44428;45.630;13.786;2022-08-11T05:18:49;101594.53;;;28.67;27.27
58658;BME280;44428;45.630;13.786;2022-08-11T05:21:35;101592.06;;;28.99;26.56
58658;BME280;44428;45.630;13.786;2022-08-11T05:24:23;101588.75;;;29.17;26.23
58658;BME280;44428;45.630;13.786;2022-08-11T05:27:09;101589.97;;;29.67;25.67
58658;BME280;44428;45.630;13.786;2022-08-11T05:30:06;101593.72;;;29.53;25.94
58658;BME280;44428;45.630;13.786;2022-08-11T05:35:49;101588.88;;;30.40;25.03
58658;BME280;44428;45.630;13.786;2022-08-11T05:38:24;101585.34;;;30.78;24.26
58658;BME280;44428;45.630;13.786;2022-08-11T05:41:13;101598.41;;;30.63;24.45
58658;BME280;44428;45.630;13.786;2022-08-11T05:43:59;101589.91;;;29.94;25.45
58658;BME280;44428;45.630;13.786;2022-08-11T05:46:44;101593.22;;;28.43;27.31
58658;BME280;44428;45.630;13.786;2022-08-11T05:49:32;101593.47;;;28.14;27.92
58658;BME280;44428;45.630;13.786;2022-08-11T05:52:21;101600.63;;;27.52;28.60
58658;BME280;44428;45.630;13.786;2022-08-11T05:55:07;101589.19;;;27.28;29.02
58658;BME280;44428;45.630;13.786;2022-08-11T05:57:57;101612.91;;;28.52;27.63
58658;BME280;44428;45.630;13.786;2022-08-11T06:00:24;101600.44;;;29.44;26.39
58658;BME280;44428;45.630;13.786;2022-08-11T06:02:53;101588.72;;;30.35;25.42
58658;BME280;44428;45.630;13.786;2022-08-11T06:05:33;101606.63;;;31.19;24.26
58658;BME280;44428;45.630;13.786;2022-08-11T06:07:59;101599.06;;;31.46;23.69
58658;BME280;44428;45.630;13.786;2022-08-11T06:10:32;101605.31;;;31.54;23.79
58658;BME280;44428;45.630;13.786;2022-08-11T06:12:59;101588.72;;;32.40;23.04
58658;BME280;44428;45.630;13.786;2022-08-11T06:15:26;101599.66;;;32.40;22.88
58658;BME280;44428;45.630;13.786;2022-08-11T06:17:54;101597.22;;;32.02;23.07
58658;BME280;44428;45.630;13.786;2022-08-11T06:20:21;101606.81;;;31.68;23.60
58658;BME280;44428;45.630;13.786;2022-08-11T06:22:56;101595.88;;;31.68;23.62
58658;BME280;44428;45.630;13.786;2022-08-11T06:25:30;101610.72;;;32.64;21.94
58658;BME280;44428;45.630;13.786;2022-08-11T06:27:56;101600.63;;;32.65;22.28
58658;BME280;44428;45.630;13.786;2022-08-11T06:30:40;101607.47;;;32.85;22.24
58658;BME280;44428;45.630;13.786;2022-08-11T06:33:10;101609.88;;;32.94;22.22
58658;BME280;44428;45.630;13.786;2022-08-11T06:38:30;101604.72;;;33.74;21.33
58658;BME280;44428;45.630;13.786;2022-08-11T06:41:08;101601.34;;;33.49;21.05
58658;BME280;44428;45.630;13.786;2022-08-11T06:44:15;101611.88;;;33.52;21.32
58658;BME280;44428;45.630;13.786;2022-08-11T06:46:47;101612.78;;;33.46;21.17
58658;BME280;44428;45.630;13.786;2022-08-11T06:49:17;101604.47;;;33.17;21.30
58658;BME280;44428;45.630;13.786;2022-08-11T06:52:05;101612.97;;;33.51;21.20
58658;BME280;44428;45.630;13.786;2022-08-11T06:54:33;101597.06;;;33.77;21.37
58658;BME280;44428;45.630;13.786;2022-08-11T06:57:00;101606.69;;;34.43;20.73
58658;BME280;44428;45.630;13.786;2022-08-11T06:59:47;101607.53;;;34.43;20.33
58658;BME280;44428;45.630;13.786;2022-08-11T07:02:53;101604.28;;;34.18;20.44
58658;BME280;44428;45.630;13.786;2022-08-11T07:14:26;101621.56;;;34.18;20.95
58658;BME280;44428;45.630;13.786;2022-08-11T07:17:15;101615.84;;;34.49;19.82
58658;BME280;44428;45.630;13.786;2022-08-11T07:19:45;101615.50;;;34.45;20.07
58658;BME280;44428;45.630;13.786;2022-08-11T07:22:31;101616.84;;;35.17;19.73
58658;BME280;44428;45.630;13.786;2022-08-11T07:25:38;101617.97;;;35.21;19.30
58658;BME280;44428;45.630;13.786;2022-08-11T07:28:27;101613.56;;;35.37;19.00
58658;BME280;44428;45.630;13.786;2022-08-11T07:31:33;101607.97;;;35.48;18.98
58658;BME280;44428;45.630;13.786;2022-08-11T07:37:13;101601.38;;;35.88;18.60
58658;BME280;44428;45.630;13.786;2022-08-11T07:39:43;101611.81;;;35.47;18.82
58658;BME280;44428;45.630;13.786;2022-08-11T07:42:12;101609.28;;;35.46;19.05
58658;BME280;44428;45.630;13.786;2022-08-11T07:44:40;101611.47;;;35.61;19.23
58658;BME280;44428;45.630;13.786;2022-08-11T07:47:25;101609.53;;;35.61;18.87
58658;BME280;44428;45.630;13.786;2022-08-11T07:50:11;101617.25;;;35.81;18.50
58658;BME280;44428;45.630;13.786;2022-08-11T07:52:57;101606.31;;;35.86;18.23
58658;BME280;44428;45.630;13.786;2022-08-11T07:55:25;101609.91;;;36.09;18.19
58658;BME280;44428;45.630;13.786;2022-08-11T07:58:03;101607.28;;;36.19;18.27
58658;BME280;44428;45.630;13.786;2022-08-11T08:00:54;101595.09;;;36.59;18.03
58658;BME280;44428;45.630;13.786;2022-08-11T08:03:40;101601.03;;;36.78;17.93
58658;BME280;44428;45.630;13.786;2022-08-11T08:06:26;101605.06;;;36.65;17.31
58658;BME280;44428;45.630;13.786;2022-08-11T08:09:11;101601.50;;;36.69;17.77
58658;BME280;44428;45.630;13.786;2022-08-11T08:11:59;101582.06;;;36.81;17.62
58658;BME280;44428;45.630;13.786;2022-08-11T08:14:43;101598.38;;;36.34;17.65
58658;BME280;44428;45.630;13.786;2022-08-11T08:17:29;101597.66;;;36.43;17.48
58658;BME280;44428;45.630;13.786;2022-08-11T08:20:20;101596.63;;;37.04;17.01
58658;BME280;44428;45.630;13.786;2022-08-11T08:22:50;101593.59;;;37.05;16.68
58658;BME280;44428;45.630;13.786;2022-08-11T08:25:29;101600.16;;;36.72;16.70
58658;BME280;44428;45.630;13.786;2022-08-11T08:27:57;101587.38;;;36.61;16.88
58658;BME280;44428;45.630;13.786;2022-08-11T08:30:27;101599.06;;;36.73;16.74
58658;BME280;44428;45.630;13.786;2022-08-11T08:33:24;101579.31;;;36.81;16.40
58658;BME280;44428;45.630;13.786;2022-08-11T08:35:52;101582.31;;;37.12;16.24
58658;BME280;44428;45.630;13.786;2022-08-11T08:41:05;101595.03;;;37.13;16.29
58658;BME280;44428;45.630;13.786;2022-08-11T08:43:31;101588.81;;;37.33;16.22
58658;BME280;44428;45.630;13.786;2022-08-11T08:45:59;101586.72;;;37.08;16.31
58658;BME280;44428;45.630;13.786;2022-08-11T08:48:28;101596.47;;;36.94;16.69
58658;BME280;44428;45.630;13.786;2022-08-11T08:51:01;101587.84;;;37.12;16.08
58658;BME280;44428;45.630;13.786;2022-08-11T08:53:49;101586.59;;;36.98;16.38
58658;BME280;44428;45.630;13.786;2022-08-11T08:56:16;101582.53;;;37.43;16.15
58658;BME280;44428;45.630;13.786;2022-08-11T08:58:45;101578.88;;;37.74;15.65
58658;BME280;44428;45.630;13.786;2022-08-11T09:01:14;101574.47;;;37.78;16.06
58658;BME280;44428;45.630;13.786;2022-08-11T09:03:41;101575.66;;;37.93;15.80
58658;BME280;44428;45.630;13.786;2022-08-11T09:06:07;101569.63;;;38.06;15.99
58658;BME280;44428;45.630;13.786;2022-08-11T09:08:34;101581.63;;;37.74;15.83
58658;BME280;44428;45.630;13.786;2022-08-11T09:11:01;101578.56;;;36.59;15.49
58658;BME280;44428;45.630;13.786;2022-08-11T09:13:46;101577.53;;;36.65;15.85
58658;BME280;44428;45.630;13.786;2022-08-11T09:16:12;101572.03;;;36.65;15.64
58658;BME280;44428;45.630;13.786;2022-08-11T09:18:40;101577.44;;;37.19;15.91
58658;BME280;44428;45.630;13.786;2022-08-11T09:21:10;101570.38;;;37.39;14.69
58658;BME280;44428;45.630;13.786;2022-08-11T09:23:38;101572.56;;;37.36;15.34
58658;BME280;44428;45.630;13.786;2022-08-11T09:26:23;101567.00;;;37.26;15.24
58658;BME280;44428;45.630;13.786;2022-08-11T09:29:09;101561.00;;;37.40;15.05
58658;BME280;44428;45.630;13.786;2022-08-11T09:31:35;101560.75;;;37.94;15.02
58658;BME280;44428;45.630;13.786;2022-08-11T09:34:02;101567.47;;;38.29;15.23
58658;BME280;44428;45.630;13.786;2022-08-11T09:36:28;101548.69;;;38.10;14.44
58658;BME280;44428;45.630;13.786;2022-08-11T09:39:14;101557.47;;;38.02;14.70
58658;BME280;44428;45.630;13.786;2022-08-11T09:42:02;101547.97;;;37.72;14.99
58658;BME280;44428;45.630;13.786;2022-08-11T09:44:33;101545.25;;;37.88;14.77
58658;BME280;44428;45.630;13.786;2022-08-11T09:47:23;101541.69;;;37.34;14.72
58658;BME280;44428;45.630;13.786;2022-08-11T09:49:51;101541.31;;;35.58;15.89
58658;BME280;44428;45.630;13.786;2022-08-11T09:52:18;101543.66;;;34.48;17.75
58658;BME280;44428;45.630;13.786;2022-08-11T09:54:47;101527.94;;;34.89;16.82
58658;BME280;44428;45.630;13.786;2022-08-11T09:57:13;101528.50;;;36.08;16.35
58658;BME280;44428;45.630;13.786;2022-08-11T09:59:57;101521.72;;;37.12;14.81
58658;BME280;44428;45.630;13.786;2022-08-11T10:02:27;101534.38;;;37.50;15.51
58658;BME280;44428;45.630;13.786;2022-08-11T10:04:56;101527.31;;;37.80;14.78
58658;BME280;44428;45.630;13.786;2022-08-11T10:07:44;101517.22;;;38.21;15.00
58658;BME280;44428;45.630;13.786;2022-08-11T10:10:18;101517.13;;;37.91;14.05
58658;BME280;44428;45.630;13.786;2022-08-11T10:12:50;101509.31;;;37.62;13.90
58658;BME280;44428;45.630;13.786;2022-08-11T10:15:17;101508.19;;;37.58;14.33
58658;BME280;44428;45.630;13.786;2022-08-11T10:18:09;101508.00;;;37.27;14.44
58658;BME280;44428;45.630;13.786;2022-08-11T10:20:58;101492.19;;;37.55;13.95
58658;BME280;44428;45.630;13.786;2022-08-11T10:23:27;101484.53;;;37.72;14.28
58658;BME280;44428;45.630;13.786;2022-08-11T10:26:14;101472.22;;;37.32;14.27
58658;BME280;44428;45.630;13.786;2022-08-11T10:29:00;101476.19;;;36.67;14.55
58658;BME280;44428;45.630;13.786;2022-08-11T10:31:27;101488.59;;;37.02;13.73
58658;BME280;44428;45.630;13.786;2022-08-11T10:34:13;101477.41;;;36.81;14.46
58658;BME280;44428;45.630;13.786;2022-08-11T10:36:41;101485.38;;;37.20;14.98
58658;BME280;44428;45.630;13.786;2022-08-11T10:39:14;101469.66;;;37.78;13.96
58658;BME280;44428;45.630;13.786;2022-08-11T10:41:46;101490.75;;;38.36;14.09
58658;BME280;44428;45.630;13.786;2022-08-11T10:44:36;101481.09;;;38.54;13.62
58658;BME280;44428;45.630;13.786;2022-08-11T10:47:03;101474.19;;;38.56;13.78
58658;BME280;44428;45.630;13.786;2022-08-11T10:49:49;101460.38;;;38.77;13.60
58658;BME280;44428;45.630;13.786;2022-08-11T10:52:36;101470.88;;;38.54;13.21
58658;BME280;44428;45.630;13.786;2022-08-11T10:55:22;101469.09;;;37.81;14.52
58658;BME280;44428;45.630;13.786;2022-08-11T10:58:08;101475.56;;;37.45;14.41
58658;BME280;44428;45.630;13.786;2022-08-11T11:00:53;101461.91;;;37.75;14.52
58658;BME280;44428;45.630;13.786;2022-08-11T11:03:29;101465.59;;;37.96;14.22
58658;BME280;44428;45.630;13.786;2022-08-11T11:06:03;101453.78;;;38.47;14.05
58658;BME280;44428;45.630;13.786;2022-08-11T11:08:32;101465.38;;;38.64;13.42
58658;BME280;44428;45.630;13.786;2022-08-11T11:11:20;101454.81;;;39.02;13.00
58658;BME280;44428;45.630;13.786;2022-08-11T11:13:51;101460.91;;;38.99;12.50
58658;BME280;44428;45.630;13.786;2022-08-11T11:16:36;101466.47;;;38.68;12.93
58658;BME280;44428;45.630;13.786;2022-08-11T11:19:17;101454.81;;;38.82;13.36
58658;BME280;44428;45.630;13.786;2022-08-11T11:21:47;101452.91;;;38.87;13.24
58658;BME280;44428;45.630;13.786;2022-08-11T11:26:54;101443.72;;;39.12;13.55
58658;BME280;44428;45.630;13.786;2022-08-11T11:37:29;101444.19;;;37.51;14.57
58658;BME280;44428;45.630;13.786;2022-08-11T11:39:58;101442.34;;;37.04;14.64
58658;BME280;44428;45.630;13.786;2022-08-11T11:42:24;101436.13;;;36.86;14.82
58658;BME280;44428;45.630;13.786;2022-08-11T11:44:50;101439.66;;;37.19;14.30
58658;BME280;44428;45.630;13.786;2022-08-11T11:47:16;101433.00;;;37.15;15.67
58658;BME280;44428;45.630;13.786;2022-08-11T11:49:48;101456.75;;;37.26;15.25
58658;BME280;44428;45.630;13.786;2022-08-11T11:52:15;101436.81;;;37.04;14.90
58658;BME280;44428;45.630;13.786;2022-08-11T11:54:45;101443.84;;;37.32;15.59
58658;BME280;44428;45.630;13.786;2022-08-11T11:57:16;101440.56;;;37.40;16.04
58658;BME280;44428;45.630;13.786;2022-08-11T12:00:07;101432.53;;;37.28;15.12
58658;BME280;44428;45.630;13.786;2022-08-11T12:02:52;101431.34;;;37.14;15.18
58658;BME280;44428;45.630;13.786;2022-08-11T12:05:20;101436.06;;;36.76;14.94
58658;BME280;44428;45.630;13.786;2022-08-11T12:07:46;101432.59;;;36.54;15.21
58658;BME280;44428;45.630;13.786;2022-08-11T12:10:31;101424.28;;;36.49;15.91
58658;BME280;44428;45.630;13.786;2022-08-11T12:13:01;101422.47;;;36.59;15.73
58658;BME280;44428;45.630;13.786;2022-08-11T12:15:46;101419.06;;;36.89;16.15
58658;BME280;44428;45.630;13.786;2022-08-11T12:18:14;101418.59;;;37.03;15.83
58658;BME280;44428;45.630;13.786;2022-08-11T12:20:43;101404.72;;;36.87;15.51
58658;BME280;44428;45.630;13.786;2022-08-11T12:23:10;101397.75;;;37.17;15.31
58658;BME280;44428;45.630;13.786;2022-08-11T12:25:56;101409.53;;;36.60;15.71
58658;BME280;44428;45.630;13.786;2022-08-11T12:28:42;101409.13;;;36.83;15.97
58658;BME280;44428;45.630;13.786;2022-08-11T12:31:08;101409.28;;;37.09;16.03
58658;BME280;44428;45.630;13.786;2022-08-11T12:33:37;101400.25;;;36.71;15.63
58658;BME280;44428;45.630;13.786;2022-08-11T12:36:04;101410.19;;;36.77;15.50
58658;BME280;44428;45.630;13.786;2022-08-11T12:38:31;101404.16;;;36.80;15.89
58658;BME280;44428;45.630;13.786;2022-08-11T12:40:59;101405.50;;;37.25;15.03
58658;BME280;44428;45.630;13.786;2022-08-11T12:43:46;101412.78;;;37.67;14.76
58658;BME280;44428;45.630;13.786;2022-08-11T12:46:32;101411.69;;;37.63;15.13
58658;BME280;44428;45.630;13.786;2022-08-11T12:49:22;101403.06;;;36.49;15.81
58658;BME280;44428;45.630;13.786;2022-08-11T12:52:13;101407.38;;;35.53;16.68
58658;BME280;44428;45.630;13.786;2022-08-11T12:54:48;101397.56;;;35.14;17.29
58658;BME280;44428;45.630;13.786;2022-08-11T12:57:19;101393.06;;;35.51;16.93
58658;BME280;44428;45.630;13.786;2022-08-11T13:00:08;101391.25;;;35.84;17.24
58658;BME280;44428;45.630;13.786;2022-08-11T13:02:54;101377.53;;;35.89;16.71
58658;BME280;44428;45.630;13.786;2022-08-11T13:05:41;101385.78;;;35.89;16.86
58658;BME280;44428;45.630;13.786;2022-08-11T13:08:07;101387.28;;;35.75;16.43
58658;BME280;44428;45.630;13.786;2022-08-11T13:10:34;101372.44;;;35.76;16.52
58658;BME280;44428;45.630;13.786;2022-08-11T13:13:20;101382.66;;;35.53;16.44
58658;BME280;44428;45.630;13.786;2022-08-11T13:15:49;101379.34;;;35.78;16.39
58658;BME280;44428;45.630;13.786;2022-08-11T13:18:21;101368.78;;;35.43;16.97
58658;BME280;44428;45.630;13.786;2022-08-11T13:20:57;101381.19;;;35.68;15.99
58658;BME280;44428;45.630;13.786;2022-08-11T13:23:23;101373.41;;;35.60;16.33
58658;BME280;44428;45.630;13.786;2022-08-11T13:25:52;101367.06;;;35.86;16.11
58658;BME280;44428;45.630;13.786;2022-08-11T13:28:19;101369.53;;;36.15;16.35
58658;BME280;44428;45.630;13.786;2022-08-11T13:30:48;101365.38;;;35.85;16.66
58658;BME280;44428;45.630;13.786;2022-08-11T13:33:34;101356.88;;;35.87;17.14
58658;BME280;44428;45.630;13.786;2022-08-11T13:36:01;101374.97;;;36.05;16.35
58658;BME280;44428;45.630;13.786;2022-08-11T13:38:28;101353.06;;;35.61;16.60
58658;BME280;44428;45.630;13.786;2022-08-11T13:40:55;101355.56;;;35.62;17.04
58658;BME280;44428;45.630;13.786;2022-08-11T13:43:22;101350.28;;;35.55;16.23
58658;BME280;44428;45.630;13.786;2022-08-11T13:45:48;101343.00;;;35.49;16.34
58658;BME280;44428;45.630;13.786;2022-08-11T13:48:36;101346.53;;;35.67;15.87
58658;BME280;44428;45.630;13.786;2022-08-11T13:51:02;101344.78;;;35.55;15.74
58658;BME280;44428;45.630;13.786;2022-08-11T13:53:46;101337.19;;;35.68;15.68
58658;BME280;44428;45.630;13.786;2022-08-11T13:56:13;101328.56;;;35.86;15.49
58658;BME280;44428;45.630;13.786;2022-08-11T13:58:38;101331.34;;;35.91;15.74
58658;BME280;44428;45.630;13.786;2022-08-11T14:01:05;101336.25;;;35.84;15.59
58658;BME280;44428;45.630;13.786;2022-08-11T14:03:32;101330.81;;;35.40;16.00
58658;BME280;44428;45.630;13.786;2022-08-11T14:06:01;101330.22;;;34.89;16.43
58658;BME280;44428;45.630;13.786;2022-08-11T14:08:31;101337.72;;;34.77;16.42
58658;BME280;44428;45.630;13.786;2022-08-11T14:11:01;101330.31;;;34.22;17.52
58658;BME280;44428;45.630;13.786;2022-08-11T14:13:48;101323.16;;;33.87;17.31
58658;BME280;44428;45.630;13.786;2022-08-11T14:16:18;101319.06;;;33.44;18.02
58658;BME280;44428;45.630;13.786;2022-08-11T14:18:47;101328.13;;;33.90;17.91
58658;BME280;44428;45.630;13.786;2022-08-11T14:21:17;101332.31;;;34.09;17.66
58658;BME280;44428;45.630;13.786;2022-08-11T14:24:05;101324.69;;;33.66;17.38
58658;BME280;44428;45.630;13.786;2022-08-11T14:26:31;101314.66;;;33.71;17.56
58658;BME280;44428;45.630;13.786;2022-08-11T14:29:08;101329.53;;;33.47;17.50
58658;BME280;44428;45.630;13.786;2022-08-11T14:31:49;101330.16;;;32.97;18.04
58658;BME280;44428;45.630;13.786;2022-08-11T14:34:17;101324.91;;;33.07;17.57
58658;BME280;44428;45.630;13.786;2022-08-11T14:36:46;101313.88;;;33.30;18.06
58658;BME280;44428;45.630;13.786;2022-08-11T14:39:20;101313.81;;;33.54;17.92
58658;BME280;44428;45.630;13.786;2022-08-11T14:41:53;101308.19;;;33.78;18.29
58658;BME280;44428;45.630;13.786;2022-08-11T14:44:42;101308.84;;;33.85;18.08
58658;BME280;44428;45.630;13.786;2022-08-11T14:47:29;101316.41;;;33.78;18.12
58658;BME280;44428;45.630;13.786;2022-08-11T14:49:57;101310.66;;;33.62;18.02
58658;BME280;44428;45.630;13.786;2022-08-11T14:52:25;101308.97;;;33.61;17.66
58658;BME280;44428;45.630;13.786;2022-08-11T14:54:52;101307.63;;;33.47;17.90
58658;BME280;44428;45.630;13.786;2022-08-11T14:57:39;101305.28;;;33.39;17.88
58658;BME280;44428;45.630;13.786;2022-08-11T15:00:08;101291.78;;;33.20;18.60
58658;BME280;44428;45.630;13.786;2022-08-11T15:02:36;101294.81;;;33.36;18.24
58658;BME280;44428;45.630;13.786;2022-08-11T15:05:23;101288.94;;;33.44;17.63
58658;BME280;44428;45.630;13.786;2022-08-11T15:07:50;101269.56;;;33.34;18.14
58658;BME280;44428;45.630;13.786;2022-08-11T15:10:17;101292.94;;;33.24;18.20
58658;BME280;44428;45.630;13.786;2022-08-11T15:12:44;101306.25;;;33.33;18.20
58658;BME280;44428;45.630;13.786;2022-08-11T15:15:11;101300.84;;;33.09;18.55
58658;BME280;44428;45.630;13.786;2022-08-11T15:17:58;101288.75;;;33.05;18.94
58658;BME280;44428;45.630;13.786;2022-08-11T15:20:26;101281.34;;;32.94;19.21
58658;BME280;44428;45.630;13.786;2022-08-11T15:23:11;101284.25;;;32.99;18.96
58658;BME280;44428;45.630;13.786;2022-08-11T15:28:47;101288.78;;;32.81;18.95
58658;BME280;44428;45.630;13.786;2022-08-11T15:31:35;101283.78;;;32.78;19.68
58658;BME280;44428;45.630;13.786;2022-08-11T15:34:24;101287.16;;;32.57;19.05
58658;BME280;44428;45.630;13.786;2022-08-11T15:37:14;101275.00;;;32.53;19.49
58658;BME280;44428;45.630;13.786;2022-08-11T15:40:17;101275.41;;;32.45;20.08
58658;BME280;44428;45.630;13.786;2022-08-11T15:43:06;101265.75;;;32.54;20.13
58658;BME280;44428;45.630;13.786;2022-08-11T15:45:54;101266.72;;;32.48;19.80
58658;BME280;44428;45.630;13.786;2022-08-11T15:51:04;101255.00;;;32.40;20.04
58658;BME280;44428;45.630;13.786;2022-08-11T15:53:42;101253.16;;;32.29;19.70
58658;BME280;44428;45.630;13.786;2022-08-11T15:56:10;101251.72;;;32.15;19.87
58658;BME280;44428;45.630;13.786;2022-08-11T15:58:45;101255.41;;;32.09;19.68
58658;BME280;44428;45.630;13.786;2022-08-11T16:01:31;101259.31;;;32.13;19.99
58658;BME280;44428;45.630;13.786;2022-08-11T16:04:19;101249.34;;;32.07;20.14
58658;BME280;44428;45.630;13.786;2022-08-11T16:07:07;101244.59;;;32.14;20.08
58658;BME280;44428;45.630;13.786;2022-08-11T16:12:30;101239.81;;;31.98;20.04
58658;BME280;44428;45.630;13.786;2022-08-11T16:15:02;101245.75;;;31.94;20.17
58658;BME280;44428;45.630;13.786;2022-08-11T16:17:49;101236.44;;;31.72;20.27
58658;BME280;44428;45.630;13.786;2022-08-11T16:20:19;101234.16;;;31.57;20.73
58658;BME280;44428;45.630;13.786;2022-08-11T16:22:48;101236.19;;;31.32;20.80
58658;BME280;44428;45.630;13.786;2022-08-11T16:25:19;101224.44;;;31.31;21.01
58658;BME280;44428;45.630;13.786;2022-08-11T16:28:05;101219.44;;;31.28;20.56
58658;BME280;44428;45.630;13.786;2022-08-11T16:30:36;101221.41;;;31.39;20.62
58658;BME280;44428;45.630;13.786;2022-08-11T16:33:04;101239.16;;;31.30;20.10
58658;BME280;44428;45.630;13.786;2022-08-11T16:35:33;101232.22;;;31.16;20.00
58658;BME280;44428;45.630;13.786;2022-08-11T16:38:20;101231.41;;;31.15;19.84
58658;BME280;44428;45.630;13.786;2022-08-11T16:41:05;101227.88;;;30.96;19.99
58658;BME280;44428;45.630;13.786;2022-08-11T16:43:33;101229.53;;;30.97;20.54
58658;BME280;44428;45.630;13.786;2022-08-11T16:46:21;101229.53;;;30.97;19.63
58658;BME280;44428;45.630;13.786;2022-08-11T16:49:19;101225.75;;;30.98;19.58
58658;BME280;44428;45.630;13.786;2022-08-11T16:51:46;101214.56;;;30.88;19.85
58658;BME280;44428;45.630;13.786;2022-08-11T16:54:12;101218.34;;;30.87;19.46
58658;BME280;44428;45.630;13.786;2022-08-11T16:56:50;101214.88;;;30.80;19.72
58658;BME280;44428;45.630;13.786;2022-08-11T16:59:28;101222.22;;;30.79;19.96
58658;BME280;44428;45.630;13.786;2022-08-11T17:01:59;101222.28;;;30.73;19.75
58658;BME280;44428;45.630;13.786;2022-08-11T17:07:24;101208.66;;;30.54;20.19
58658;BME280;44428;45.630;13.786;2022-08-11T17:10:36;101219.19;;;30.51;19.98